Wolfe, West Virginia
Current Conditions -  °F | °C
As of 8:52 AM on Sunday 25 Jan 2015 (Local Time) from KBLF Reporting Station
Clear Clear  
Wind Chill: -2°   Ceiling: Unl
Heat Index:   Visibility: 10mi
Dew Point: -3°   Wind: 5mph
Humidity: 78%   Direction: 220°SW
Pressure: 29.82"   Gusts: NA
Location:  37.31°N, 81.33°W
Report Text: KBLF 251352Z AUTO 22004KT 10SM CLR 01/M03 A2982 RMK AO2 SLP111 T00061028
Loading
Personal Weather Stations






























Interactive Weather Map New forecast layout! Learn more

10-Day Weather Forecast

Advertisements
Track Severe Weather on mobile